Terminal Aerodrome Forecast
Issued by NWS Wilmington, OH

Current Version | Previous Version | Graphics & Text | Print | Product List | Glossary On
Versions: 1 2 3 4 5 6 7 8 9 10 11 12 13 14 15 16 17 18 19 20 21 22 23 24 25 26 27 28 29 30
205
FTUS41 KILN 300915 AAC
TAFCVG
TAF AMD
KCVG 300915Z 3009/0112 20004KT P6SM SCT250 WS020/20035KT
     FM301200 17010KT P6SM BKN250
     FM301500 19014G21KT P6SM SCT120 BKN250
     FM302300 17012G17KT P6SM VCTS SCT040CB BKN100
     FM010600 18014G21KT P6SM -SHRA VCTS SCT040CB OVC090=

USA.gov is the U.S. government's official web portal to all federal, state and local government web resources and services.